Terminal Aerodrome Forecast
Issued by NWS Grand Forks, ND

Home | Current Version | Previous Version | Graphics & Text | Print | Product List | Glossary On
Versions: 1 2 3 4 5 6 7 8 9 10 11 12 13 14 15 16 17
000
FTUS43 KFGF 240500
TAFFAR
TAF
KFAR 240528Z 2406/2506 34012KT P6SM OVC011
      TEMPO 2406/2408 3SM -SN
     FM241200 VRB06KT P6SM OVC010
     FM241800 21008KT P6SM OVC016
     FM242200 18010KT P6SM BKN050=

USA.gov is the U.S. government's official web portal to all federal, state and local government web resources and services.